Time;durP1;ratioP1;P1;durP2;ratioP2;P2;SDS_P1;SDS_P2;PMS_P1;PMS_P2;Temp;Humidity;BMP_temperature;BMP_pressure;BME280_temperature;BME280_humidity;BME280_pressure;Samples;Min_cycle;Max_cycle;Signal;HPM_P1;HPM_P2
2022/07/14 00:01:25;;;;;;;;;;;12.70;58.20;;;;;;4166053;28;19995;-86
2022/07/14 00:03:46;;;;;;;;;;;12.60;58.30;;;;;;4192739;28;19916;-85
2022/07/14 00:06:07;;;;;;;;;;;12.70;58.40;;;;;;4184009;28;19962;-85
2022/07/14 00:08:28;;;;;;;;;;;12.60;58.50;;;;;;4189417;28;19909;-86
2022/07/14 00:10:49;;;;;;;;;;;12.60;58.60;;;;;;4184414;28;19939;-85
2022/07/14 00:13:09;;;;;;;;;;;12.60;58.70;;;;;;4184702;28;19913;-86
2022/07/14 00:15:31;;;;;;;;;;;12.60;58.90;;;;;;4186168;28;19908;-84
2022/07/14 00:17:52;;;;;;;;;;;12.60;59.00;;;;;;4176114;28;19912;-85
2022/07/14 00:20:13;;;;;;;;;;;12.60;59.00;;;;;;4167451;28;19943;-85
2022/07/14 00:22:34;;;;;;;;;;;12.60;59.70;;;;;;4182914;28;20273;-86
2022/07/14 00:24:55;;;;;;;;;;;12.60;59.20;;;;;;4165069;28;19920;-86
2022/07/14 00:27:15;;;;;;;;;;;12.60;59.20;;;;;;4174201;28;19916;-86
2022/07/14 00:29:36;;;;;;;;;;;12.60;59.20;;;;;;4188193;28;19912;-86
2022/07/14 00:31:57;;;;;;;;;;;12.60;59.40;;;;;;4180235;28;19904;-85
2022/07/14 00:34:18;;;;;;;;;;;12.60;59.20;;;;;;4177568;28;19908;-84
2022/07/14 00:36:39;;;;;;;;;;;12.50;59.70;;;;;;4189767;28;19909;-85
2022/07/14 00:39:00;;;;;;;;;;;12.50;59.20;;;;;;4192286;28;19913;-85
2022/07/14 00:41:21;;;;;;;;;;;12.50;59.30;;;;;;4174351;28;19919;-86
2022/07/14 00:43:42;;;;;;;;;;;12.50;59.30;;;;;;4189233;28;20441;-86
2022/07/14 00:46:03;;;;;;;;;;;12.50;59.40;;;;;;4187996;28;19912;-87
2022/07/14 00:48:26;;;;;;;;;;;12.40;59.60;;;;;;4189954;28;19908;-86
2022/07/14 00:50:48;;;;;;;;;;;12.40;59.10;;;;;;4188771;28;19908;-85
2022/07/14 00:53:09;;;;;;;;;;;12.40;59.20;;;;;;4190089;28;19999;-85
2022/07/14 00:55:30;;;;;;;;;;;12.40;59.20;;;;;;4189988;28;19912;-86
2022/07/14 00:57:52;;;;;;;;;;;12.40;59.30;;;;;;4187428;28;19996;-85
2022/07/14 01:00:14;;;;;;;;;;;12.40;59.20;;;;;;4188621;28;19922;-85
2022/07/14 01:02:35;;;;;;;;;;;12.40;59.40;;;;;;4177819;28;20000;-85
2022/07/14 01:04:56;;;;;;;;;;;12.30;59.40;;;;;;4189686;28;19920;-85
2022/07/14 01:07:20;;;;;;;;;;;12.30;59.30;;;;;;4184107;28;19909;-85
2022/07/14 01:09:42;;;;;;;;;;;12.30;59.30;;;;;;4193590;28;20350;-85
2022/07/14 01:12:03;;;;;;;;;;;12.30;59.30;;;;;;4176665;28;19912;-86
2022/07/14 01:14:23;;;;;;;;;;;12.30;59.30;;;;;;4190747;28;19927;-86
2022/07/14 01:16:44;;;;;;;;;;;12.30;59.30;;;;;;4172767;28;20476;-85
2022/07/14 01:19:05;;;;;;;;;;;12.20;59.40;;;;;;4193363;28;19915;-86
2022/07/14 01:21:26;;;;;;;;;;;12.20;59.40;;;;;;4173885;28;20324;-85
2022/07/14 01:23:47;;;;;;;;;;;12.20;59.90;;;;;;4178970;28;19959;-85
2022/07/14 01:26:08;;;;;;;;;;;12.20;59.90;;;;;;4186585;28;19909;-85
2022/07/14 01:28:29;;;;;;;;;;;12.20;60.00;;;;;;4190586;28;19908;-85
2022/07/14 01:30:50;;;;;;;;;;;12.10;60.10;;;;;;4192152;28;19908;-86
2022/07/14 01:33:10;;;;;;;;;;;12.10;60.30;;;;;;4182622;28;19912;-85
2022/07/14 01:35:31;;;;;;;;;;;12.10;60.20;;;;;;4178957;28;19905;-85
2022/07/14 01:37:52;;;;;;;;;;;12.10;60.70;;;;;;4169949;28;19963;-85
2022/07/14 01:40:13;;;;;;;;;;;12.10;60.80;;;;;;4176785;28;20063;-85
2022/07/14 01:42:34;;;;;;;;;;;12.00;60.20;;;;;;4173240;28;19917;-86
2022/07/14 01:44:55;;;;;;;;;;;12.00;60.20;;;;;;4195981;28;20373;-85
2022/07/14 01:47:16;;;;;;;;;;;12.00;60.00;;;;;;4190505;28;20279;-85
2022/07/14 01:49:37;;;;;;;;;;;12.00;60.10;;;;;;4193491;28;20396;-85
2022/07/14 01:51:57;;;;;;;;;;;11.90;60.30;;;;;;4183223;28;19912;-85
2022/07/14 01:54:18;;;;;;;;;;;12.00;60.30;;;;;;4177140;28;19987;-85
2022/07/14 01:56:42;;;;;;;;;;;11.90;60.40;;;;;;4190866;28;19905;-86
2022/07/14 01:59:03;;;;;;;;;;;11.90;60.50;;;;;;4188142;28;19913;-85
2022/07/14 02:01:39;;;;;;;;;;;11.90;60.70;;;;;;4174483;28;20023;-85
2022/07/14 02:04:01;;;;;;;;;;;11.80;61.60;;;;;;4175855;28;20349;-85
2022/07/14 02:06:22;;;;;;;;;;;11.80;60.90;;;;;;4184897;28;20360;-86
2022/07/14 02:08:42;;;;;;;;;;;11.80;61.20;;;;;;4184487;28;19919;-86
2022/07/14 02:13:43;;;;;;;;;;;11.70;60.50;;;;;;4181687;28;20007;-85
2022/07/14 02:16:04;;;;;;;;;;;11.70;60.60;;;;;;4173543;28;20305;-85
2022/07/14 02:18:24;;;;;;;;;;;11.70;60.90;;;;;;4176088;28;19920;-85
2022/07/14 02:20:47;;;;;;;;;;;11.70;61.30;;;;;;4187646;28;19973;-85
2022/07/14 02:23:07;;;;;;;;;;;11.60;62.50;;;;;;4177029;28;19909;-85
2022/07/14 02:25:28;;;;;;;;;;;11.60;62.00;;;;;;4173686;28;19909;-85
2022/07/14 02:27:49;;;;;;;;;;;11.60;61.30;;;;;;4188052;28;19923;-85
2022/07/14 02:30:10;;;;;;;;;;;11.50;61.90;;;;;;4172378;28;19988;-85
2022/07/14 02:32:31;;;;;;;;;;;11.50;62.30;;;;;;4171716;28;19920;-85
2022/07/14 02:34:52;;;;;;;;;;;11.50;62.50;;;;;;4173851;28;19916;-85
2022/07/14 02:37:14;;;;;;;;;;;11.50;62.80;;;;;;4182214;28;19908;-85
2022/07/14 02:39:35;;;;;;;;;;;11.50;62.50;;;;;;4177269;28;19911;-84
2022/07/14 02:41:56;;;;;;;;;;;11.50;61.80;;;;;;4191392;28;20502;-85
2022/07/14 02:44:17;;;;;;;;;;;11.50;61.60;;;;;;4184314;28;19904;-86
2022/07/14 02:46:38;;;;;;;;;;;11.50;62.10;;;;;;4176697;28;19905;-85
2022/07/14 02:48:59;;;;;;;;;;;11.40;61.90;;;;;;4192433;28;20293;-85
2022/07/14 02:51:20;;;;;;;;;;;11.40;61.90;;;;;;4185845;28;19944;-86
2022/07/14 02:53:40;;;;;;;;;;;11.40;62.30;;;;;;4179055;28;20385;-84
2022/07/14 02:56:03;;;;;;;;;;;11.40;62.40;;;;;;4178019;28;19905;-84
2022/07/14 02:58:26;;;;;;;;;;;11.40;62.40;;;;;;4180505;28;19908;-86
2022/07/14 03:00:47;;;;;;;;;;;11.40;62.40;;;;;;4190260;28;19909;-86
2022/07/14 03:03:08;;;;;;;;;;;11.30;62.70;;;;;;4189207;28;19911;-85
2022/07/14 03:05:30;;;;;;;;;;;11.40;63.00;;;;;;4175213;28;19909;-86
2022/07/14 03:07:51;;;;;;;;;;;11.30;62.60;;;;;;4172706;28;19915;-85
2022/07/14 03:10:11;;;;;;;;;;;11.30;62.40;;;;;;4193066;28;19905;-85
2022/07/14 03:12:32;;;;;;;;;;;11.30;62.00;;;;;;4185927;28;20029;-84
2022/07/14 03:14:53;;;;;;;;;;;11.30;62.20;;;;;;4189116;28;20374;-85
2022/07/14 03:17:15;;;;;;;;;;;11.30;62.40;;;;;;4170870;28;19966;-86
2022/07/14 03:19:44;;;;;;;;;;;11.30;62.70;;;;;;4193078;28;19928;-85
2022/07/14 03:22:04;;;;;;;;;;;11.30;62.90;;;;;;4185602;28;19920;-85
2022/07/14 03:24:25;;;;;;;;;;;11.30;63.00;;;;;;4187008;28;20385;-85
2022/07/14 03:26:47;;;;;;;;;;;11.30;63.30;;;;;;4191595;28;19915;-87
2022/07/14 03:29:08;;;;;;;;;;;11.30;63.10;;;;;;4199970;28;19909;-85
2022/07/14 03:31:28;;;;;;;;;;;11.30;63.00;;;;;;4206279;28;19955;-84
2022/07/14 03:33:49;;;;;;;;;;;11.30;63.40;;;;;;4174054;28;20007;-84
2022/07/14 03:36:10;;;;;;;;;;;11.30;63.50;;;;;;4176800;28;19948;-86
2022/07/14 03:38:31;;;;;;;;;;;11.30;63.60;;;;;;4197037;28;19918;-86
2022/07/14 03:40:52;;;;;;;;;;;11.30;63.30;;;;;;4185755;28;19905;-86
2022/07/14 03:43:13;;;;;;;;;;;11.30;63.00;;;;;;4182246;28;19998;-85
2022/07/14 03:45:34;;;;;;;;;;;11.30;63.00;;;;;;4185372;28;19974;-86
2022/07/14 03:47:55;;;;;;;;;;;11.30;64.40;;;;;;4178385;28;19905;-86
2022/07/14 03:50:16;;;;;;;;;;;11.30;63.70;;;;;;4171700;28;19912;-86
2022/07/14 03:52:37;;;;;;;;;;;11.30;64.10;;;;;;4183165;28;19915;-85
2022/07/14 03:54:57;;;;;;;;;;;11.40;64.60;;;;;;4180365;28;19999;-85
2022/07/14 03:57:18;;;;;;;;;;;11.30;64.60;;;;;;4187754;28;19912;-87
2022/07/14 03:59:42;;;;;;;;;;;11.30;64.50;;;;;;4172727;28;20268;-85
2022/07/14 04:02:03;;;;;;;;;;;11.40;65.10;;;;;;4179005;28;19909;-86
2022/07/14 04:04:24;;;;;;;;;;;11.40;66.20;;;;;;4173267;28;19955;-85
2022/07/14 04:06:44;;;;;;;;;;;11.50;66.60;;;;;;4177539;28;19912;-86
2022/07/14 04:09:06;;;;;;;;;;;11.50;67.00;;;;;;4190373;28;19905;-86
2022/07/14 04:11:27;;;;;;;;;;;11.50;67.70;;;;;;4178594;28;19909;-87
2022/07/14 04:13:48;;;;;;;;;;;11.60;68.00;;;;;;4183140;28;20384;-86
2022/07/14 04:16:09;;;;;;;;;;;11.70;69.00;;;;;;4192003;28;19908;-87
2022/07/14 04:18:29;;;;;;;;;;;11.70;68.90;;;;;;4197451;28;20414;-84
2022/07/14 04:20:54;;;;;;;;;;;11.80;69.80;;;;;;4193244;28;19904;-85
2022/07/14 04:23:15;;;;;;;;;;;11.90;68.80;;;;;;4184212;28;19909;-85
2022/07/14 04:25:36;;;;;;;;;;;12.00;70.50;;;;;;4191116;28;19905;-85
2022/07/14 04:27:57;;;;;;;;;;;12.10;70.40;;;;;;4175051;28;19906;-87
2022/07/14 04:30:17;;;;;;;;;;;12.10;70.30;;;;;;4179660;28;20406;-86
2022/07/14 04:32:38;;;;;;;;;;;12.20;70.70;;;;;;4178592;28;19920;-86
2022/07/14 04:34:59;;;;;;;;;;;12.30;71.20;;;;;;4185851;28;19905;-86
2022/07/14 04:37:20;;;;;;;;;;;12.40;71.20;;;;;;4182470;28;19912;-86
2022/07/14 04:39:41;;;;;;;;;;;12.50;71.30;;;;;;4188167;28;19965;-85
2022/07/14 04:42:03;;;;;;;;;;;12.60;71.10;;;;;;4182119;28;19912;-85
2022/07/14 04:44:23;;;;;;;;;;;12.70;71.30;;;;;;4198001;28;20358;-85
2022/07/14 04:46:44;;;;;;;;;;;12.70;71.80;;;;;;4193664;28;19908;-86
2022/07/14 04:52:03;;;;;;;;;;;12.90;70.70;;;;;;4190669;28;19909;-86
2022/07/14 04:54:24;;;;;;;;;;;13.00;70.10;;;;;;4189939;28;20370;-86
2022/07/14 04:56:45;;;;;;;;;;;13.10;70.40;;;;;;4187087;28;19908;-87
2022/07/14 04:59:06;;;;;;;;;;;13.20;70.10;;;;;;4180341;28;19909;-87
2022/07/14 05:01:27;;;;;;;;;;;13.30;69.90;;;;;;4190221;28;19924;-85
2022/07/14 05:03:48;;;;;;;;;;;13.40;69.60;;;;;;4193159;28;19908;-87
2022/07/14 05:06:10;;;;;;;;;;;13.40;69.30;;;;;;4193173;28;19914;-86
2022/07/14 05:08:33;;;;;;;;;;;13.50;69.10;;;;;;4173756;28;19908;-85
2022/07/14 05:10:54;;;;;;;;;;;13.60;69.20;;;;;;4179845;28;20425;-86
2022/07/14 05:13:15;;;;;;;;;;;13.70;69.20;;;;;;4178366;28;20505;-86
2022/07/14 05:15:36;;;;;;;;;;;13.80;69.10;;;;;;4173398;28;20343;-85
2022/07/14 05:17:57;;;;;;;;;;;13.90;69.20;;;;;;4192108;28;19990;-86
2022/07/14 05:20:18;;;;;;;;;;;13.90;68.70;;;;;;4178296;28;19962;-85
2022/07/14 05:22:40;;;;;;;;;;;14.10;68.40;;;;;;4181422;28;19916;-85
2022/07/14 05:25:04;;;;;;;;;;;14.10;68.20;;;;;;4175265;28;20502;-85
2022/07/14 05:27:27;;;;;;;;;;;14.20;68.50;;;;;;4184319;28;19908;-85
2022/07/14 05:29:48;;;;;;;;;;;14.30;68.30;;;;;;4191646;28;19915;-86
2022/07/14 05:32:09;;;;;;;;;;;14.50;68.10;;;;;;4180696;28;19909;-86
2022/07/14 05:34:30;;;;;;;;;;;14.60;68.10;;;;;;4181309;28;19954;-85
2022/07/14 05:36:50;;;;;;;;;;;14.70;67.80;;;;;;4188886;28;19944;-86
2022/07/14 05:39:11;;;;;;;;;;;14.70;67.60;;;;;;4178962;28;19908;-86
2022/07/14 05:41:32;;;;;;;;;;;14.90;67.40;;;;;;4193927;28;19930;-86
2022/07/14 05:43:53;;;;;;;;;;;14.90;67.00;;;;;;4180491;28;19920;-87
2022/07/14 05:46:15;;;;;;;;;;;15.00;66.90;;;;;;4194688;28;20373;-85
2022/07/14 05:48:37;;;;;;;;;;;15.10;66.90;;;;;;4196241;28;19912;-86
2022/07/14 05:51:04;;;;;;;;;;;15.20;66.20;;;;;;4192629;28;19973;-85
2022/07/14 05:53:25;;;;;;;;;;;15.40;66.30;;;;;;4189031;28;20729;-87
2022/07/14 05:55:47;;;;;;;;;;;15.50;66.10;;;;;;4182126;28;20091;-85
2022/07/14 05:58:08;;;;;;;;;;;15.60;65.60;;;;;;4175428;28;20294;-87
2022/07/14 06:00:29;;;;;;;;;;;15.70;65.30;;;;;;4183901;28;19916;-85
2022/07/14 06:02:50;;;;;;;;;;;15.80;64.60;;;;;;4191857;28;20007;-87
2022/07/14 06:05:11;;;;;;;;;;;15.80;64.50;;;;;;4188282;28;19908;-85
2022/07/14 06:07:32;;;;;;;;;;;15.90;64.20;;;;;;4176922;28;19911;-85
2022/07/14 06:09:53;;;;;;;;;;;16.00;63.90;;;;;;4188256;28;19959;-87
2022/07/14 06:12:14;;;;;;;;;;;16.10;63.20;;;;;;4190905;28;20423;-85
2022/07/14 06:14:34;;;;;;;;;;;16.10;62.60;;;;;;4188347;28;20509;-85
2022/07/14 06:16:55;;;;;;;;;;;16.20;62.20;;;;;;4188131;28;19916;-86
2022/07/14 06:19:16;;;;;;;;;;;16.30;61.00;;;;;;4194015;28;19916;-84
2022/07/14 06:21:37;;;;;;;;;;;16.40;61.00;;;;;;4176973;28;20275;-86
2022/07/14 06:23:58;;;;;;;;;;;16.40;60.80;;;;;;4172016;28;20020;-84
2022/07/14 06:26:19;;;;;;;;;;;16.50;60.70;;;;;;4173813;28;20764;-85
2022/07/14 06:28:41;;;;;;;;;;;16.60;60.80;;;;;;4181602;28;19948;-85
2022/07/14 06:31:02;;;;;;;;;;;16.60;60.80;;;;;;4180450;28;19911;-86
2022/07/14 06:33:23;;;;;;;;;;;16.80;61.70;;;;;;4180115;28;19921;-87
2022/07/14 06:35:44;;;;;;;;;;;16.80;60.40;;;;;;4175327;28;20449;-87
2022/07/14 06:38:05;;;;;;;;;;;16.90;60.10;;;;;;4187736;28;19962;-87
2022/07/14 06:40:26;;;;;;;;;;;16.90;59.30;;;;;;4172401;28;19963;-86
2022/07/14 06:42:47;;;;;;;;;;;16.90;59.20;;;;;;4188939;28;20270;-86
2022/07/14 06:45:08;;;;;;;;;;;17.00;59.10;;;;;;4173702;28;20494;-85
2022/07/14 06:47:32;;;;;;;;;;;17.00;58.90;;;;;;4186968;28;20324;-88
2022/07/14 06:49:53;;;;;;;;;;;17.00;59.00;;;;;;4174719;28;19916;-87
2022/07/14 06:52:14;;;;;;;;;;;17.10;59.00;;;;;;4190408;28;19905;-84
2022/07/14 06:54:34;;;;;;;;;;;17.10;58.80;;;;;;4171833;28;19916;-84
2022/07/14 06:56:55;;;;;;;;;;;17.10;58.70;;;;;;4191854;28;21363;-87
2022/07/14 06:59:16;;;;;;;;;;;17.10;58.60;;;;;;4181495;28;19975;-86
2022/07/14 07:01:37;;;;;;;;;;;17.20;58.20;;;;;;4175830;28;20535;-86
2022/07/14 07:04:01;;;;;;;;;;;17.20;57.90;;;;;;4177857;28;19905;-88
2022/07/14 07:09:02;;;;;;;;;;;17.30;58.00;;;;;;4194940;28;19904;-87
2022/07/14 07:11:22;;;;;;;;;;;17.30;58.20;;;;;;4191101;28;19915;-86
2022/07/14 07:13:43;;;;;;;;;;;17.40;58.00;;;;;;4186896;28;20008;-86
2022/07/14 07:16:05;;;;;;;;;;;17.40;57.90;;;;;;4193977;28;19975;-86
2022/07/14 07:18:26;;;;;;;;;;;17.40;57.90;;;;;;4172862;28;19913;-87
2022/07/14 07:20:47;;;;;;;;;;;17.50;58.00;;;;;;4186482;28;19912;-88
2022/07/14 07:23:08;;;;;;;;;;;17.60;57.90;;;;;;4177118;28;19916;-86
2022/07/14 07:25:29;;;;;;;;;;;17.60;57.50;;;;;;4176332;28;19912;-87
2022/07/14 07:30:47;;;;;;;;;;;17.80;57.20;;;;;;4188245;28;19912;-86
2022/07/14 07:33:08;;;;;;;;;;;17.90;57.00;;;;;;4189962;28;20039;-87
2022/07/14 07:35:32;;;;;;;;;;;18.00;56.40;;;;;;4181372;28;20317;-85
2022/07/14 07:37:52;;;;;;;;;;;18.00;56.50;;;;;;4177437;28;20306;-87
2022/07/14 07:40:32;;;;;;;;;;;18.10;56.40;;;;;;4195112;28;19995;-88
2022/07/14 07:42:53;;;;;;;;;;;18.20;56.10;;;;;;4201789;28;19912;-88
2022/07/14 07:45:13;;;;;;;;;;;18.20;56.20;;;;;;4199692;28;20390;-85
2022/07/14 07:47:35;;;;;;;;;;;18.30;55.70;;;;;;4176554;28;19908;-86
2022/07/14 07:49:56;;;;;;;;;;;18.30;55.80;;;;;;4175641;28;19913;-87
2022/07/14 07:52:17;;;;;;;;;;;18.40;55.90;;;;;;4191234;28;19905;-85
2022/07/14 07:54:38;;;;;;;;;;;18.50;55.90;;;;;;4186259;28;19909;-86
2022/07/14 07:56:59;;;;;;;;;;;18.50;55.50;;;;;;4193114;28;19999;-84
2022/07/14 07:59:21;;;;;;;;;;;18.60;55.40;;;;;;4180667;28;19916;-85
2022/07/14 08:01:41;;;;;;;;;;;18.60;54.80;;;;;;4187456;28;19909;-85
2022/07/14 08:04:02;;;;;;;;;;;18.70;54.70;;;;;;4177112;28;19908;-85
2022/07/14 08:06:23;;;;;;;;;;;18.70;53.80;;;;;;4190093;28;19914;-90
2022/07/14 08:08:44;;;;;;;;;;;18.70;53.60;;;;;;4185574;28;19930;-87
2022/07/14 08:11:05;;;;;;;;;;;18.70;54.10;;;;;;4174362;28;19924;-86
2022/07/14 08:13:26;;;;;;;;;;;18.70;54.00;;;;;;4194712;28;20401;-87
2022/07/14 08:15:47;;;;;;;;;;;18.70;53.50;;;;;;4175063;28;19915;-86
2022/07/14 08:18:08;;;;;;;;;;;18.70;53.20;;;;;;4186559;28;20378;-87
2022/07/14 08:20:29;;;;;;;;;;;18.80;53.00;;;;;;4192053;28;19912;-86
2022/07/14 08:22:51;;;;;;;;;;;18.80;53.40;;;;;;4188018;28;20023;-87
2022/07/14 08:25:12;;;;;;;;;;;18.80;52.60;;;;;;4173079;28;19964;-87
2022/07/14 08:27:33;;;;;;;;;;;18.80;53.00;;;;;;4182148;28;19973;-87
2022/07/14 08:29:55;;;;;;;;;;;18.90;52.90;;;;;;4179338;28;19905;-86
2022/07/14 08:32:17;;;;;;;;;;;18.90;52.50;;;;;;4190851;28;19970;-85
2022/07/14 08:34:38;;;;;;;;;;;18.90;52.80;;;;;;4167429;28;20417;-86
2022/07/14 08:36:59;;;;;;;;;;;18.90;52.00;;;;;;4188840;28;20401;-87
2022/07/14 08:39:20;;;;;;;;;;;18.90;52.20;;;;;;4172027;28;20648;-86
2022/07/14 08:41:41;;;;;;;;;;;18.90;52.40;;;;;;4192056;28;20274;-88
2022/07/14 08:44:03;;;;;;;;;;;18.90;52.70;;;;;;4188374;28;20398;-85
2022/07/14 08:46:24;;;;;;;;;;;19.00;52.30;;;;;;4185375;28;19908;-87
2022/07/14 08:48:46;;;;;;;;;;;19.00;52.30;;;;;;4171758;28;19909;-85
2022/07/14 08:51:08;;;;;;;;;;;19.00;52.40;;;;;;4176550;28;20007;-86
2022/07/14 08:53:30;;;;;;;;;;;19.00;52.30;;;;;;4190738;28;19971;-85
2022/07/14 08:55:51;;;;;;;;;;;19.00;52.20;;;;;;4172243;28;19916;-87
2022/07/14 08:58:12;;;;;;;;;;;18.90;52.10;;;;;;4191879;28;19916;-86
2022/07/14 09:00:33;;;;;;;;;;;18.90;52.30;;;;;;4189381;28;19960;-87
2022/07/14 09:02:55;;;;;;;;;;;18.90;52.50;;;;;;4188551;28;19955;-84
2022/07/14 09:05:16;;;;;;;;;;;18.90;52.70;;;;;;4185568;28;20293;-84
2022/07/14 09:07:38;;;;;;;;;;;18.80;52.10;;;;;;4176930;28;19944;-86
2022/07/14 09:10:08;;;;;;;;;;;18.80;52.10;;;;;;4179983;28;19913;-85
2022/07/14 09:12:29;;;;;;;;;;;18.80;52.30;;;;;;4197459;28;20433;-86
2022/07/14 09:17:33;;;;;;;;;;;18.70;52.30;;;;;;4191557;28;19912;-87
2022/07/14 09:20:02;;;;;;;;;;;18.70;52.40;;;;;;4192768;28;19944;-86
2022/07/14 09:22:27;;;;;;;;;;;18.70;52.50;;;;;;4188110;28;19995;-87
2022/07/14 09:24:54;;;;;;;;;;;18.70;52.80;;;;;;4177322;28;20472;-85
2022/07/14 09:27:19;;;;;;;;;;;18.60;53.10;;;;;;4190618;28;19991;-86
2022/07/14 09:29:40;;;;;;;;;;;18.60;53.10;;;;;;4177752;28;20414;-88
2022/07/14 09:32:01;;;;;;;;;;;18.70;53.40;;;;;;4176886;28;19995;-86
2022/07/14 09:34:23;;;;;;;;;;;18.70;53.70;;;;;;4191117;28;19955;-85
2022/07/14 09:36:44;;;;;;;;;;;18.80;53.50;;;;;;4187249;28;19908;-84
2022/07/14 09:39:06;;;;;;;;;;;18.80;52.80;;;;;;4191807;28;19908;-86
2022/07/14 09:41:30;;;;;;;;;;;18.80;52.60;;;;;;4198308;28;19919;-86
2022/07/14 09:44:11;;;;;;;;;;;18.80;52.20;;;;;;4191811;28;19912;-87
2022/07/14 09:46:48;;;;;;;;;;;18.90;52.40;;;;;;4176307;28;19920;-86
2022/07/14 09:49:09;;;;;;;;;;;18.90;52.20;;;;;;4192375;28;19966;-85
2022/07/14 09:51:30;;;;;;;;;;;18.80;51.90;;;;;;4187584;28;20371;-84
2022/07/14 09:53:52;;;;;;;;;;;18.90;51.80;;;;;;4192921;28;20259;-84
2022/07/14 09:56:14;;;;;;;;;;;18.80;51.90;;;;;;4171954;28;19920;-87
2022/07/14 09:58:40;;;;;;;;;;;18.80;52.20;;;;;;4170107;28;19909;-83
2022/07/14 10:01:06;;;;;;;;;;;18.70;52.40;;;;;;4174762;28;19960;-85
2022/07/14 10:03:28;;;;;;;;;;;18.70;52.40;;;;;;4192594;28;19931;-86
2022/07/14 10:05:50;;;;;;;;;;;18.70;52.50;;;;;;4191066;28;19912;-86
2022/07/14 10:08:11;;;;;;;;;;;18.70;52.60;;;;;;4177488;28;19948;-87
2022/07/14 10:10:33;;;;;;;;;;;18.60;53.00;;;;;;4192801;28;19911;-84
2022/07/14 10:12:55;;;;;;;;;;;18.40;52.40;;;;;;4174598;28;19909;-82
2022/07/14 10:15:16;;;;;;;;;;;18.30;52.40;;;;;;4191100;28;19924;-84
2022/07/14 10:17:39;;;;;;;;;;;18.20;52.60;;;;;;4179708;28;20368;-84
2022/07/14 10:20:00;;;;;;;;;;;18.00;53.00;;;;;;4190175;28;20011;-85
2022/07/14 10:22:21;;;;;;;;;;;17.80;53.50;;;;;;4187118;28;19962;-88
2022/07/14 10:24:42;;;;;;;;;;;17.60;54.00;;;;;;4191239;28;19908;-84
2022/07/14 10:27:05;;;;;;;;;;;17.50;55.20;;;;;;4198257;28;19912;-84
2022/07/14 10:29:26;;;;;;;;;;;17.30;54.90;;;;;;4186219;28;20448;-84
2022/07/14 10:32:13;;;;;;;;;;;17.20;55.20;;;;;;4184760;28;19908;-85
2022/07/14 10:34:55;;;;;;;;;;;17.10;56.40;;;;;;4169646;28;19917;-84
2022/07/14 10:37:30;;;;;;;;;;;17.00;56.80;;;;;;4177445;28;19917;-84
2022/07/14 10:40:03;;;;;;;;;;;16.90;56.80;;;;;;4188444;28;19943;-84
2022/07/14 10:42:32;;;;;;;;;;;16.80;57.90;;;;;;4190728;28;19920;-86
2022/07/14 10:44:53;;;;;;;;;;;16.70;57.60;;;;;;4187709;28;19971;-85
2022/07/14 10:47:16;;;;;;;;;;;16.70;58.80;;;;;;4186333;28;19908;-83
2022/07/14 10:49:56;;;;;;;;;;;16.50;58.10;;;;;;4192539;28;20439;-85
2022/07/14 10:52:27;;;;;;;;;;;16.50;58.70;;;;;;4189733;28;19931;-84
2022/07/14 10:55:07;;;;;;;;;;;16.50;59.30;;;;;;4193772;28;19916;-85
2022/07/14 10:57:28;;;;;;;;;;;16.50;59.20;;;;;;4169086;28;19916;-83
2022/07/14 10:59:49;;;;;;;;;;;16.50;59.50;;;;;;4189836;28;19954;-84
2022/07/14 11:02:10;;;;;;;;;;;16.50;59.60;;;;;;4176834;28;19913;-84
2022/07/14 11:04:49;;;;;;;;;;;16.50;59.80;;;;;;4186466;28;19908;-85
2022/07/14 11:07:29;;;;;;;;;;;16.60;59.90;;;;;;4177251;28;19905;-84
2022/07/14 11:09:50;;;;;;;;;;;16.60;60.00;;;;;;4189348;28;19908;-86
2022/07/14 11:12:12;;;;;;;;;;;16.70;61.20;;;;;;4191775;28;19962;-85
2022/07/14 11:14:37;;;;;;;;;;;16.80;61.60;;;;;;4182216;28;19913;-85
2022/07/14 11:16:58;;;;;;;;;;;16.90;62.30;;;;;;4175328;28;20183;-84
2022/07/14 11:19:30;;;;;;;;;;;17.00;63.10;;;;;;4177722;28;19912;-85
2022/07/14 11:22:10;;;;;;;;;;;17.10;62.60;;;;;;4173306;28;19909;-86
2022/07/14 11:24:32;;;;;;;;;;;17.20;62.80;;;;;;4188910;28;19916;-84
2022/07/14 11:26:53;;;;;;;;;;;17.30;62.40;;;;;;4192473;28;20575;-86
2022/07/14 11:29:14;;;;;;;;;;;17.40;62.40;;;;;;4185780;28;19908;-86
2022/07/14 11:31:48;;;;;;;;;;;17.40;63.10;;;;;;4173927;28;19964;-86
2022/07/14 11:37:02;;;;;;;;;;;17.20;62.10;;;;;;4186765;28;19908;-84
2022/07/14 11:39:23;;;;;;;;;;;17.20;62.20;;;;;;4173358;28;19920;-83
2022/07/14 11:41:46;;;;;;;;;;;17.10;62.00;;;;;;4185862;28;19916;-85
2022/07/14 11:44:07;;;;;;;;;;;17.00;62.00;;;;;;4176881;28;19912;-83
2022/07/14 11:46:28;;;;;;;;;;;16.90;61.90;;;;;;4171859;28;19920;-82
2022/07/14 11:48:53;;;;;;;;;;;16.80;62.50;;;;;;4189519;28;19927;-84
2022/07/14 11:51:24;;;;;;;;;;;16.70;61.80;;;;;;4189184;28;19913;-85
2022/07/14 11:53:45;;;;;;;;;;;16.60;62.30;;;;;;4189458;28;19998;-84
2022/07/14 11:56:07;;;;;;;;;;;16.50;62.20;;;;;;4182850;28;20379;-86
2022/07/14 11:58:31;;;;;;;;;;;16.40;62.00;;;;;;4172383;28;19925;-85
2022/07/14 12:00:54;;;;;;;;;;;16.30;62.30;;;;;;4173284;28;19939;-86
2022/07/14 12:03:15;;;;;;;;;;;16.20;62.30;;;;;;4196552;28;20041;-83
2022/07/14 12:05:36;;;;;;;;;;;16.20;62.50;;;;;;4180897;28;19916;-84
2022/07/14 12:08:00;;;;;;;;;;;16.10;62.90;;;;;;4176545;28;19916;-83
2022/07/14 12:10:49;;;;;;;;;;;16.10;63.00;;;;;;4193297;28;19916;-86
2022/07/14 12:13:09;;;;;;;;;;;16.00;63.00;;;;;;4172850;28;19916;-85
2022/07/14 12:15:30;;;;;;;;;;;16.00;63.00;;;;;;4187022;28;19963;-84
2022/07/14 12:17:53;;;;;;;;;;;16.00;62.70;;;;;;4185678;28;19905;-83
2022/07/14 12:20:14;;;;;;;;;;;15.90;63.20;;;;;;4189641;28;19908;-84
2022/07/14 12:22:42;;;;;;;;;;;15.90;63.70;;;;;;4179047;28;19964;-85
2022/07/14 12:25:03;;;;;;;;;;;15.90;63.40;;;;;;4184849;28;19904;-86
2022/07/14 12:27:24;;;;;;;;;;;15.90;63.70;;;;;;4179495;28;19940;-83
2022/07/14 12:29:50;;;;;;;;;;;15.90;63.80;;;;;;4180382;28;19905;-84
2022/07/14 12:32:11;;;;;;;;;;;15.90;63.80;;;;;;4178805;28;19912;-83
2022/07/14 12:34:32;;;;;;;;;;;16.00;64.40;;;;;;4181160;28;19913;-84
2022/07/14 12:36:54;;;;;;;;;;;16.00;64.20;;;;;;4176820;28;19931;-85
2022/07/14 12:39:15;;;;;;;;;;;16.00;64.40;;;;;;4185168;28;19940;-83
2022/07/14 12:41:37;;;;;;;;;;;16.10;64.70;;;;;;4174380;28;19976;-83
2022/07/14 12:44:03;;;;;;;;;;;16.10;64.30;;;;;;4181593;28;19952;-83
2022/07/14 12:46:24;;;;;;;;;;;16.20;64.40;;;;;;4192131;28;19912;-84
2022/07/14 12:48:48;;;;;;;;;;;16.30;64.90;;;;;;4191204;28;20002;-83
2022/07/14 12:51:27;;;;;;;;;;;16.30;64.80;;;;;;4181006;28;19944;-82
2022/07/14 12:53:57;;;;;;;;;;;16.40;65.00;;;;;;4195842;28;19965;-83
2022/07/14 12:56:19;;;;;;;;;;;16.50;65.00;;;;;;4184915;28;19915;-86
2022/07/14 12:58:43;;;;;;;;;;;16.50;64.80;;;;;;4191691;28;19912;-84
2022/07/14 13:01:11;;;;;;;;;;;16.60;65.30;;;;;;4192792;28;19971;-83
2022/07/14 13:03:32;;;;;;;;;;;16.70;65.30;;;;;;4192508;28;19908;-83
2022/07/14 13:05:54;;;;;;;;;;;16.80;64.80;;;;;;4191304;28;19962;-84
2022/07/14 13:08:27;;;;;;;;;;;16.90;64.60;;;;;;4190379;28;20050;-85
2022/07/14 13:10:55;;;;;;;;;;;16.90;64.10;;;;;;4192076;28;20012;-84
2022/07/14 13:13:26;;;;;;;;;;;17.00;63.50;;;;;;4172586;28;19925;-83
2022/07/14 13:15:47;;;;;;;;;;;17.00;63.30;;;;;;4178369;28;20000;-83
2022/07/14 13:18:08;;;;;;;;;;;17.00;63.00;;;;;;4194435;28;20390;-83
2022/07/14 13:20:47;;;;;;;;;;;17.00;62.20;;;;;;4178396;28;20353;-83
2022/07/14 13:23:08;;;;;;;;;;;17.00;62.10;;;;;;4191900;28;19983;-82
2022/07/14 13:25:29;;;;;;;;;;;17.00;61.90;;;;;;4182607;28;19939;-84
2022/07/14 13:27:49;;;;;;;;;;;17.00;61.90;;;;;;4190158;28;19952;-83
2022/07/14 13:30:10;;;;;;;;;;;16.90;61.70;;;;;;4176870;28;19959;-84
2022/07/14 13:32:31;;;;;;;;;;;16.90;61.80;;;;;;4186475;28;19947;-85
2022/07/14 13:34:52;;;;;;;;;;;16.90;61.80;;;;;;4180949;28;19939;-83
2022/07/14 13:37:15;;;;;;;;;;;16.90;62.30;;;;;;4185597;28;19919;-85
2022/07/14 13:39:36;;;;;;;;;;;16.80;62.50;;;;;;4170783;28;19917;-83
2022/07/14 13:41:58;;;;;;;;;;;16.80;62.80;;;;;;4171465;28;19912;-82
2022/07/14 13:44:19;;;;;;;;;;;16.80;63.00;;;;;;4177525;28;19948;-84
2022/07/14 13:46:40;;;;;;;;;;;16.80;63.30;;;;;;4185779;28;19909;-85
2022/07/14 13:49:01;;;;;;;;;;;16.80;63.10;;;;;;4190025;28;19936;-85
2022/07/14 13:54:01;;;;;;;;;;;16.80;63.40;;;;;;4187410;28;19912;-84
2022/07/14 13:56:23;;;;;;;;;;;16.80;63.60;;;;;;4188442;28;20030;-84
2022/07/14 13:58:44;;;;;;;;;;;16.80;63.90;;;;;;4172748;28;19917;-84
2022/07/14 14:01:05;;;;;;;;;;;16.80;63.70;;;;;;4195119;28;19919;-86
2022/07/14 14:03:28;;;;;;;;;;;16.80;63.50;;;;;;4190196;28;19920;-84
2022/07/14 14:05:50;;;;;;;;;;;16.80;63.40;;;;;;4188494;28;19947;-84
2022/07/14 14:08:11;;;;;;;;;;;16.80;63.50;;;;;;4171834;28;19916;-83